Date,TemperatureHighF,TemperatureAvgF,TemperatureLowF,DewpointHighF,DewpointAvgF,DewpointLowF,HumidityHigh,HumidityAvg,HumidityLow,PressureMaxIn,PressureMinIn,WindSpeedMaxMPH,WindSpeedAvgMPH,GustSpeedMaxMPH,PrecipitationSumIn
2013-10-2,78,70,65,74,69,65,99,96,81,30.10,30.01,8,2,10,0.00
2013-10-3,80,72,68,75,69,67,99,91,68,30.03,29.91,12,5,17,0.48
2013-10-4,83,74,67,75,70,67,99,88,64,30.03,29.96,10,6,14,0.15
2013-10-5,80,73,68,77,71,68,99,96,80,30.01,29.85,21,6,33,1.20
2013-10-6,68,60,49,68,56,44,99,88,62,29.87,29.72,14,5,22,0.63
2013-10-7,65,52,46,54,49,45,99,90,55,30.12,29.82,12,4,17,0.04
2013-10-8,72,59,47,58,51,47,99,80,46,30.24,30.13,6,1,10,0.01
2013-10-9,72,57,42,57,49,42,99,80,43,30.26,30.14,7,1,9,0.00
2013-10-10,73,58,45,61,53,45,99,85,53,30.19,30.08,2,0,7,0.00
2013-10-18,61,50,44,52,47,43,99,90,67,29.99,29.91,10,5,16,0.13
2013-10-19,54,47,42,47,43,39,99,87,56,29.98,29.86,14,4,24,0.25
2013-10-20,65,53,42,49,42,-100,96,71,50,29.96,29.85,15,9,25,0.02
2013-10-21,57,51,38,51,45,32,96,82,67,30.01,29.88,13,7,20,0.00
2013-10-22,51,39,30,42,36,29,99,90,56,30.03,29.88,9,1,14,0.29
2013-10-23,48,40,35,42,37,35,99,87,68,30.05,29.87,10,4,16,0.10
2013-10-24,45,40,37,41,36,30,99,84,63,30.29,30.04,9,4,15,0.00
2013-10-25,50,43,28,37,33,28,99,68,53,30.44,30.21,10,4,16,0.00
2013-10-26,57,46,37,43,36,31,95,70,50,30.21,29.89,21,9,29,0.00
2013-10-27,55,42,30,42,33,-100,99,76,46,30.11,30.02,10,1,16,0.00
2013-10-28,59,42,30,44,34,-100,99,82,44,30.31,30.07,0,0,0,0.00
2013-10-29,59,45,34,51,42,34,99,90,62,30.36,30.18,5,0,9,0.01
2013-10-30,65,58,51,65,57,50,99,99,97,30.18,29.90,12,3,17,0.05